Airfield :
LOGIN :

Register | Disclaimer

   EN    FR    IT 

 










Legend :    VFR   Marginal VFR   IFR   Intensive IFR   Very Intensive IFR
Visi :
Ceiling :
>= 8 km
>= 3000ft
5 to 8 km
1000 to 3000 ft
1500m to 5 km
500 to 1000 ft
800 to 1500m
200 to 500 ft
< 800m
< 200 ft
Symbols :   Thunderstorms  Fog  Heavy snow  Heavy precipitations  Wind > 20 kt
SIGMETs :     Misc.  Thunderstorms  Icing  Turbulence  Mountain Waves  Volcanic Ashes






- Airport Elevation : 407 ft


EGDM - MoD Boscombe Down Amesbury

CURRENT METAR :
  • 191216Z 23016KT 5000 -RADZ SCT008 BKN011 OVC020 09/08 Q1005 TEMPO 4000 RMK GRN TEMPO GRN

EXPIRED METARs :
  • 191209Z 22015KT 9999 -RADZ SCT008 BKN013 OVC020 09/08 Q1005 TEMPO 4000 RMK GRN TEMPO GRN
  • 191150Z 22017KT 7000 -RADZ SCT010 BKN014 OVC020 09/08 Q1006 TEMPO 4000 RMK GRN TEMPO GRN
  • 191141Z 23017KT 9000 -RADZ FEW009 BKN013 BKN020 10/08 Q1006 TEMPO 4000 RMK GRN TEMPO GRN
  • 191120Z 23017KT 9999 FEW010 SCT015 BKN020 10/08 Q1006 TEMPO 6000 -RADZ SCT010 RMK WHT TEMPO GRN
  • 191050Z 23021KT 9999 FEW010 BKN015 BKN025 10/08 Q1006 TEMPO SCT012 RMK WHT TEMPO GRN
  • 191020Z 22017KT 9999 SCT008 BKN013 BKN023 10/09 Q1006 TEMPO 4000 -RADZ RMK GRN TEMPO GRN
  • 190950Z 22015KT 9999 SCT008 BKN013 BKN020 10/10 Q1006 TEMPO 4000 -RADZ RMK GRN TEMPO GRN
  • 190927Z 22010KT 3000 -RADZ SCT005 OVC013 10/10 Q1007 BECMG 9999 NSW BKN012 RMK YLO1 BECMG GRN

TAF TAF EGDM
Valid from the 19 at 12:00 until the 19 at 21:00 UTC


191049Z 1912/1921 22020G30KT 9999 SCT010 BKN020
TEMPO 1912/1916 FEW012 BKN020
PROB40
TEMPO 1912/1915 FEW012 SCT025
TEMPO 1915/1921 4000 RADZ
PROB30
TEMPO 1918/1921 3000 DZ BKN005



MET'MAP, your aeronautical weather chart ! - Copyright ORBIFLY December 2007 - Disclaimer

ORBIFLY MET'MAP TEAM :

Programming & Development : Alexandra Zaïnal
Concept & original design : Baudouin d'Aumeries
Assistance for programming : Marc-Olivier Méhu
Technical & hardware support : Manuel Goepfert

Contact : metmap@orbifly.com




SOURCES & CREDITS :

   NOAA